sensor_id;sensor_type;location;lat;lon;timestamp;P1;durP1;ratioP1;P2;durP2;ratioP2
15708;SDS011;7954;51.914;8.420;2022-10-16T00:01:43;2.23;;;1.97;;
15708;SDS011;7954;51.914;8.420;2022-10-16T00:04:12;2.20;;;2.00;;
15708;SDS011;7954;51.914;8.420;2022-10-16T00:06:41;2.37;;;1.97;;
15708;SDS011;7954;51.914;8.420;2022-10-16T00:09:08;2.20;;;2.00;;
15708;SDS011;7954;51.914;8.420;2022-10-16T00:11:38;2.10;;;1.90;;
15708;SDS011;7954;51.914;8.420;2022-10-16T00:14:10;2.40;;;2.20;;
15708;SDS011;7954;51.914;8.420;2022-10-16T00:16:40;2.50;;;2.30;;
15708;SDS011;7954;51.914;8.420;2022-10-16T00:19:08;2.43;;;2.10;;
15708;SDS011;7954;51.914;8.420;2022-10-16T00:21:38;2.70;;;2.27;;
15708;SDS011;7954;51.914;8.420;2022-10-16T00:24:07;2.30;;;2.10;;
15708;SDS011;7954;51.914;8.420;2022-10-16T00:26:37;2.43;;;2.20;;
15708;SDS011;7954;51.914;8.420;2022-10-16T00:29:05;3.43;;;2.30;;
15708;SDS011;7954;51.914;8.420;2022-10-16T00:31:36;3.07;;;2.30;;
15708;SDS011;7954;51.914;8.420;2022-10-16T00:34:06;2.67;;;2.47;;
15708;SDS011;7954;51.914;8.420;2022-10-16T00:36:34;2.33;;;2.13;;
15708;SDS011;7954;51.914;8.420;2022-10-16T00:39:02;2.63;;;2.40;;
15708;SDS011;7954;51.914;8.420;2022-10-16T00:41:31;2.63;;;2.17;;
15708;SDS011;7954;51.914;8.420;2022-10-16T00:43:59;2.33;;;2.20;;
15708;SDS011;7954;51.914;8.420;2022-10-16T00:46:29;2.57;;;2.37;;
15708;SDS011;7954;51.914;8.420;2022-10-16T00:49:04;4.00;;;2.50;;
15708;SDS011;7954;51.914;8.420;2022-10-16T00:51:36;2.73;;;2.33;;
15708;SDS011;7954;51.914;8.420;2022-10-16T00:54:08;2.37;;;2.17;;
15708;SDS011;7954;51.914;8.420;2022-10-16T00:56:37;2.27;;;2.07;;
15708;SDS011;7954;51.914;8.420;2022-10-16T00:59:08;3.30;;;2.93;;
15708;SDS011;7954;51.914;8.420;2022-10-16T01:01:41;2.50;;;2.30;;
15708;SDS011;7954;51.914;8.420;2022-10-16T01:04:12;2.30;;;2.10;;
15708;SDS011;7954;51.914;8.420;2022-10-16T01:06:43;2.40;;;2.20;;
15708;SDS011;7954;51.914;8.420;2022-10-16T01:09:20;2.50;;;2.20;;
15708;SDS011;7954;51.914;8.420;2022-10-16T01:11:53;2.80;;;2.60;;
15708;SDS011;7954;51.914;8.420;2022-10-16T01:14:31;2.40;;;2.20;;
15708;SDS011;7954;51.914;8.420;2022-10-16T01:17:07;2.83;;;2.47;;
15708;SDS011;7954;51.914;8.420;2022-10-16T01:19:44;2.70;;;2.50;;
15708;SDS011;7954;51.914;8.420;2022-10-16T01:22:24;3.13;;;2.70;;
15708;SDS011;7954;51.914;8.420;2022-10-16T01:25:00;3.77;;;2.70;;
15708;SDS011;7954;51.914;8.420;2022-10-16T01:27:38;2.50;;;2.20;;
15708;SDS011;7954;51.914;8.420;2022-10-16T01:30:10;3.30;;;2.40;;
15708;SDS011;7954;51.914;8.420;2022-10-16T01:32:42;2.63;;;2.43;;
15708;SDS011;7954;51.914;8.420;2022-10-16T01:35:14;3.17;;;2.37;;
15708;SDS011;7954;51.914;8.420;2022-10-16T01:37:48;2.97;;;2.50;;
15708;SDS011;7954;51.914;8.420;2022-10-16T01:40:20;3.00;;;2.50;;
15708;SDS011;7954;51.914;8.420;2022-10-16T01:42:55;2.23;;;2.03;;
15708;SDS011;7954;51.914;8.420;2022-10-16T01:45:31;2.90;;;2.47;;
15708;SDS011;7954;51.914;8.420;2022-10-16T01:48:01;2.27;;;2.07;;
15708;SDS011;7954;51.914;8.420;2022-10-16T01:50:34;4.93;;;2.67;;
15708;SDS011;7954;51.914;8.420;2022-10-16T01:53:05;2.70;;;2.50;;
15708;SDS011;7954;51.914;8.420;2022-10-16T01:55:37;3.10;;;2.33;;
15708;SDS011;7954;51.914;8.420;2022-10-16T01:58:13;2.80;;;2.50;;
15708;SDS011;7954;51.914;8.420;2022-10-16T02:00:42;3.57;;;2.20;;
15708;SDS011;7954;51.914;8.420;2022-10-16T02:03:13;3.70;;;2.53;;
15708;SDS011;7954;51.914;8.420;2022-10-16T02:05:45;2.70;;;2.50;;
15708;SDS011;7954;51.914;8.420;2022-10-16T02:08:16;2.53;;;2.33;;
15708;SDS011;7954;51.914;8.420;2022-10-16T02:10:45;2.50;;;2.30;;
15708;SDS011;7954;51.914;8.420;2022-10-16T02:13:15;2.57;;;2.13;;
15708;SDS011;7954;51.914;8.420;2022-10-16T02:15:48;2.83;;;2.23;;
15708;SDS011;7954;51.914;8.420;2022-10-16T02:18:16;2.53;;;2.33;;
15708;SDS011;7954;51.914;8.420;2022-10-16T02:20:48;3.30;;;1.90;;
15708;SDS011;7954;51.914;8.420;2022-10-16T02:23:21;2.00;;;1.87;;
15708;SDS011;7954;51.914;8.420;2022-10-16T02:25:54;2.17;;;1.97;;
15708;SDS011;7954;51.914;8.420;2022-10-16T02:28:28;2.53;;;2.20;;
15708;SDS011;7954;51.914;8.420;2022-10-16T02:31:04;4.30;;;2.27;;
15708;SDS011;7954;51.914;8.420;2022-10-16T02:33:36;2.60;;;1.93;;
15708;SDS011;7954;51.914;8.420;2022-10-16T02:36:06;2.27;;;2.07;;
15708;SDS011;7954;51.914;8.420;2022-10-16T02:38:35;2.20;;;2.00;;
15708;SDS011;7954;51.914;8.420;2022-10-16T02:41:04;2.93;;;1.80;;
15708;SDS011;7954;51.914;8.420;2022-10-16T02:43:36;2.40;;;2.20;;
15708;SDS011;7954;51.914;8.420;2022-10-16T02:46:03;2.13;;;1.93;;
15708;SDS011;7954;51.914;8.420;2022-10-16T02:48:31;2.57;;;2.30;;
15708;SDS011;7954;51.914;8.420;2022-10-16T02:50:59;2.90;;;1.90;;
15708;SDS011;7954;51.914;8.420;2022-10-16T02:53:27;3.67;;;2.20;;
15708;SDS011;7954;51.914;8.420;2022-10-16T02:55:56;2.60;;;2.40;;
15708;SDS011;7954;51.914;8.420;2022-10-16T02:58:24;2.30;;;2.00;;
15708;SDS011;7954;51.914;8.420;2022-10-16T03:00:54;2.37;;;2.00;;
15708;SDS011;7954;51.914;8.420;2022-10-16T03:03:22;2.97;;;1.97;;
15708;SDS011;7954;51.914;8.420;2022-10-16T03:05:50;1.83;;;1.63;;
15708;SDS011;7954;51.914;8.420;2022-10-16T03:08:19;1.57;;;1.47;;
15708;SDS011;7954;51.914;8.420;2022-10-16T03:10:49;2.10;;;1.80;;
15708;SDS011;7954;51.914;8.420;2022-10-16T03:13:18;1.93;;;1.77;;
15708;SDS011;7954;51.914;8.420;2022-10-16T03:15:47;2.40;;;1.90;;
15708;SDS011;7954;51.914;8.420;2022-10-16T03:18:17;2.30;;;1.70;;
15708;SDS011;7954;51.914;8.420;2022-10-16T03:20:45;2.03;;;1.70;;
15708;SDS011;7954;51.914;8.420;2022-10-16T03:23:12;3.00;;;2.03;;
15708;SDS011;7954;51.914;8.420;2022-10-16T03:25:41;2.87;;;1.70;;
15708;SDS011;7954;51.914;8.420;2022-10-16T03:28:09;2.73;;;1.60;;
15708;SDS011;7954;51.914;8.420;2022-10-16T03:30:36;1.63;;;1.53;;
15708;SDS011;7954;51.914;8.420;2022-10-16T03:33:05;1.80;;;1.60;;
15708;SDS011;7954;51.914;8.420;2022-10-16T03:35:36;2.33;;;2.03;;
15708;SDS011;7954;51.914;8.420;2022-10-16T03:38:03;1.67;;;1.57;;
15708;SDS011;7954;51.914;8.420;2022-10-16T03:40:32;1.80;;;1.50;;
15708;SDS011;7954;51.914;8.420;2022-10-16T03:43:00;2.10;;;1.80;;
15708;SDS011;7954;51.914;8.420;2022-10-16T03:45:27;3.80;;;1.80;;
15708;SDS011;7954;51.914;8.420;2022-10-16T03:47:56;2.27;;;1.70;;
15708;SDS011;7954;51.914;8.420;2022-10-16T03:50:23;1.63;;;1.53;;
15708;SDS011;7954;51.914;8.420;2022-10-16T03:52:54;2.37;;;1.83;;
15708;SDS011;7954;51.914;8.420;2022-10-16T03:55:22;1.60;;;1.50;;
15708;SDS011;7954;51.914;8.420;2022-10-16T03:57:50;2.83;;;1.50;;
15708;SDS011;7954;51.914;8.420;2022-10-16T04:00:18;2.87;;;1.70;;
15708;SDS011;7954;51.914;8.420;2022-10-16T04:02:46;1.77;;;1.50;;
15708;SDS011;7954;51.914;8.420;2022-10-16T04:05:14;1.60;;;1.30;;
15708;SDS011;7954;51.914;8.420;2022-10-16T04:07:43;1.50;;;1.40;;
15708;SDS011;7954;51.914;8.420;2022-10-16T04:10:12;1.90;;;1.50;;
15708;SDS011;7954;51.914;8.420;2022-10-16T04:12:40;2.60;;;1.50;;
15708;SDS011;7954;51.914;8.420;2022-10-16T04:15:09;1.57;;;1.47;;
15708;SDS011;7954;51.914;8.420;2022-10-16T04:17:37;1.50;;;1.40;;
15708;SDS011;7954;51.914;8.420;2022-10-16T04:20:05;1.63;;;1.30;;
15708;SDS011;7954;51.914;8.420;2022-10-16T04:22:33;1.50;;;1.40;;
15708;SDS011;7954;51.914;8.420;2022-10-16T04:25:02;1.57;;;1.10;;
15708;SDS011;7954;51.914;8.420;2022-10-16T04:27:31;1.40;;;1.23;;
15708;SDS011;7954;51.914;8.420;2022-10-16T04:29:59;1.27;;;1.17;;
15708;SDS011;7954;51.914;8.420;2022-10-16T04:32:27;2.40;;;1.50;;
15708;SDS011;7954;51.914;8.420;2022-10-16T04:34:56;1.20;;;1.10;;
15708;SDS011;7954;51.914;8.420;2022-10-16T04:37:23;1.20;;;1.10;;
15708;SDS011;7954;51.914;8.420;2022-10-16T04:39:53;1.20;;;1.10;;
15708;SDS011;7954;51.914;8.420;2022-10-16T04:42:21;1.10;;;1.10;;
15708;SDS011;7954;51.914;8.420;2022-10-16T04:44:51;1.23;;;1.13;;
15708;SDS011;7954;51.914;8.420;2022-10-16T04:47:20;1.30;;;1.20;;
15708;SDS011;7954;51.914;8.420;2022-10-16T04:49:48;1.00;;;1.00;;
15708;SDS011;7954;51.914;8.420;2022-10-16T04:52:16;1.53;;;1.30;;
15708;SDS011;7954;51.914;8.420;2022-10-16T04:54:45;1.50;;;1.30;;
15708;SDS011;7954;51.914;8.420;2022-10-16T04:57:13;2.73;;;1.20;;
15708;SDS011;7954;51.914;8.420;2022-10-16T04:59:40;1.23;;;1.13;;
15708;SDS011;7954;51.914;8.420;2022-10-16T05:02:10;2.40;;;1.17;;
15708;SDS011;7954;51.914;8.420;2022-10-16T05:04:38;1.00;;;1.00;;
15708;SDS011;7954;51.914;8.420;2022-10-16T05:07:06;5.90;;;1.40;;
15708;SDS011;7954;51.914;8.420;2022-10-16T05:09:34;1.10;;;1.00;;
15708;SDS011;7954;51.914;8.420;2022-10-16T05:12:02;1.63;;;1.20;;
15708;SDS011;7954;51.914;8.420;2022-10-16T05:14:31;1.30;;;1.07;;
15708;SDS011;7954;51.914;8.420;2022-10-16T05:16:59;1.37;;;1.03;;
15708;SDS011;7954;51.914;8.420;2022-10-16T05:19:28;1.03;;;1.03;;
15708;SDS011;7954;51.914;8.420;2022-10-16T05:21:56;1.40;;;1.23;;
15708;SDS011;7954;51.914;8.420;2022-10-16T05:24:24;1.20;;;1.10;;
15708;SDS011;7954;51.914;8.420;2022-10-16T05:26:52;1.10;;;1.10;;
15708;SDS011;7954;51.914;8.420;2022-10-16T05:29:20;1.63;;;1.07;;
15708;SDS011;7954;51.914;8.420;2022-10-16T05:31:49;1.80;;;1.10;;
15708;SDS011;7954;51.914;8.420;2022-10-16T05:34:18;1.30;;;1.20;;
15708;SDS011;7954;51.914;8.420;2022-10-16T05:36:47;1.77;;;1.23;;
15708;SDS011;7954;51.914;8.420;2022-10-16T05:39:16;1.17;;;1.07;;
15708;SDS011;7954;51.914;8.420;2022-10-16T05:41:44;1.13;;;1.03;;
15708;SDS011;7954;51.914;8.420;2022-10-16T05:44:12;1.87;;;1.20;;
15708;SDS011;7954;51.914;8.420;2022-10-16T05:46:41;1.10;;;1.10;;
15708;SDS011;7954;51.914;8.420;2022-10-16T05:49:09;1.23;;;1.13;;
15708;SDS011;7954;51.914;8.420;2022-10-16T05:51:37;1.00;;;1.00;;
15708;SDS011;7954;51.914;8.420;2022-10-16T05:54:07;1.60;;;1.10;;
15708;SDS011;7954;51.914;8.420;2022-10-16T05:56:35;1.07;;;1.03;;
15708;SDS011;7954;51.914;8.420;2022-10-16T05:59:03;1.10;;;1.10;;
15708;SDS011;7954;51.914;8.420;2022-10-16T06:01:32;1.40;;;1.30;;
15708;SDS011;7954;51.914;8.420;2022-10-16T06:04:01;1.47;;;0.90;;
15708;SDS011;7954;51.914;8.420;2022-10-16T06:06:29;1.00;;;1.00;;
15708;SDS011;7954;51.914;8.420;2022-10-16T06:08:57;1.03;;;0.93;;
15708;SDS011;7954;51.914;8.420;2022-10-16T06:11:28;2.33;;;1.20;;
15708;SDS011;7954;51.914;8.420;2022-10-16T06:13:58;1.17;;;1.03;;
15708;SDS011;7954;51.914;8.420;2022-10-16T06:16:28;1.00;;;0.90;;
15708;SDS011;7954;51.914;8.420;2022-10-16T06:18:58;1.00;;;1.00;;
15708;SDS011;7954;51.914;8.420;2022-10-16T06:21:28;1.00;;;0.90;;
15708;SDS011;7954;51.914;8.420;2022-10-16T06:23:56;1.20;;;1.10;;
15708;SDS011;7954;51.914;8.420;2022-10-16T06:26:27;1.40;;;1.17;;
15708;SDS011;7954;51.914;8.420;2022-10-16T06:28:56;1.10;;;1.03;;
15708;SDS011;7954;51.914;8.420;2022-10-16T06:31:26;1.47;;;1.00;;
15708;SDS011;7954;51.914;8.420;2022-10-16T06:33:57;0.90;;;0.90;;
15708;SDS011;7954;51.914;8.420;2022-10-16T06:36:25;1.17;;;1.10;;
15708;SDS011;7954;51.914;8.420;2022-10-16T06:38:54;1.30;;;1.00;;
15708;SDS011;7954;51.914;8.420;2022-10-16T06:41:22;1.97;;;1.10;;
15708;SDS011;7954;51.914;8.420;2022-10-16T06:43:52;0.93;;;0.93;;
15708;SDS011;7954;51.914;8.420;2022-10-16T06:46:21;1.40;;;1.07;;
15708;SDS011;7954;51.914;8.420;2022-10-16T06:48:50;1.60;;;1.07;;
15708;SDS011;7954;51.914;8.420;2022-10-16T06:51:19;4.30;;;1.20;;
15708;SDS011;7954;51.914;8.420;2022-10-16T06:53:48;1.00;;;1.00;;
15708;SDS011;7954;51.914;8.420;2022-10-16T06:56:33;1.20;;;1.07;;
15708;SDS011;7954;51.914;8.420;2022-10-16T06:59:02;0.90;;;0.90;;
15708;SDS011;7954;51.914;8.420;2022-10-16T07:01:32;1.00;;;0.93;;
15708;SDS011;7954;51.914;8.420;2022-10-16T07:04:01;1.43;;;1.13;;
15708;SDS011;7954;51.914;8.420;2022-10-16T07:06:31;1.00;;;1.00;;
15708;SDS011;7954;51.914;8.420;2022-10-16T07:09:00;1.10;;;1.10;;
15708;SDS011;7954;51.914;8.420;2022-10-16T07:11:30;1.00;;;0.90;;
15708;SDS011;7954;51.914;8.420;2022-10-16T07:13:59;3.70;;;1.00;;
15708;SDS011;7954;51.914;8.420;2022-10-16T07:16:29;1.60;;;0.90;;
15708;SDS011;7954;51.914;8.420;2022-10-16T07:18:58;1.10;;;1.00;;
15708;SDS011;7954;51.914;8.420;2022-10-16T07:21:28;0.90;;;0.90;;
15708;SDS011;7954;51.914;8.420;2022-10-16T07:24:01;0.90;;;0.90;;
15708;SDS011;7954;51.914;8.420;2022-10-16T07:26:30;1.00;;;1.00;;
15708;SDS011;7954;51.914;8.420;2022-10-16T07:29:00;1.07;;;1.03;;
15708;SDS011;7954;51.914;8.420;2022-10-16T07:31:31;1.20;;;1.10;;
15708;SDS011;7954;51.914;8.420;2022-10-16T07:34:00;1.10;;;1.00;;
15708;SDS011;7954;51.914;8.420;2022-10-16T07:36:28;1.10;;;1.00;;
15708;SDS011;7954;51.914;8.420;2022-10-16T07:38:56;0.90;;;0.90;;
15708;SDS011;7954;51.914;8.420;2022-10-16T07:41:26;1.03;;;0.97;;
15708;SDS011;7954;51.914;8.420;2022-10-16T07:43:55;0.87;;;0.87;;
15708;SDS011;7954;51.914;8.420;2022-10-16T07:46:26;1.13;;;0.93;;
15708;SDS011;7954;51.914;8.420;2022-10-16T07:48:57;2.03;;;1.67;;
15708;SDS011;7954;51.914;8.420;2022-10-16T07:51:25;0.93;;;0.90;;
15708;SDS011;7954;51.914;8.420;2022-10-16T07:53:53;1.20;;;1.10;;
15708;SDS011;7954;51.914;8.420;2022-10-16T07:56:21;1.03;;;1.03;;
15708;SDS011;7954;51.914;8.420;2022-10-16T07:58:50;1.83;;;1.30;;
15708;SDS011;7954;51.914;8.420;2022-10-16T08:01:18;1.47;;;1.37;;
15708;SDS011;7954;51.914;8.420;2022-10-16T08:03:47;1.50;;;1.40;;
15708;SDS011;7954;51.914;8.420;2022-10-16T08:06:17;1.20;;;1.10;;
15708;SDS011;7954;51.914;8.420;2022-10-16T08:08:53;1.57;;;1.10;;
15708;SDS011;7954;51.914;8.420;2022-10-16T08:11:22;0.80;;;0.80;;
15708;SDS011;7954;51.914;8.420;2022-10-16T08:13:52;0.90;;;0.90;;
15708;SDS011;7954;51.914;8.420;2022-10-16T08:16:20;1.03;;;1.00;;
15708;SDS011;7954;51.914;8.420;2022-10-16T08:18:48;0.90;;;0.90;;
15708;SDS011;7954;51.914;8.420;2022-10-16T08:21:20;1.87;;;1.10;;
15708;SDS011;7954;51.914;8.420;2022-10-16T08:23:50;0.93;;;0.90;;
15708;SDS011;7954;51.914;8.420;2022-10-16T08:26:23;1.60;;;1.00;;
15708;SDS011;7954;51.914;8.420;2022-10-16T08:28:52;1.70;;;1.20;;
15708;SDS011;7954;51.914;8.420;2022-10-16T08:31:20;1.27;;;1.10;;
15708;SDS011;7954;51.914;8.420;2022-10-16T08:33:48;1.13;;;1.00;;
15708;SDS011;7954;51.914;8.420;2022-10-16T08:36:20;2.13;;;1.30;;
15708;SDS011;7954;51.914;8.420;2022-10-16T08:38:48;1.10;;;1.00;;
15708;SDS011;7954;51.914;8.420;2022-10-16T08:41:21;2.23;;;1.13;;
15708;SDS011;7954;51.914;8.420;2022-10-16T08:44:01;1.13;;;1.03;;
15708;SDS011;7954;51.914;8.420;2022-10-16T08:46:45;1.60;;;1.10;;
15708;SDS011;7954;51.914;8.420;2022-10-16T08:49:21;2.93;;;1.10;;
15708;SDS011;7954;51.914;8.420;2022-10-16T08:51:52;1.23;;;1.00;;
15708;SDS011;7954;51.914;8.420;2022-10-16T08:54:26;1.93;;;1.00;;
15708;SDS011;7954;51.914;8.420;2022-10-16T08:56:57;1.53;;;1.10;;
15708;SDS011;7954;51.914;8.420;2022-10-16T08:59:34;2.30;;;1.20;;
15708;SDS011;7954;51.914;8.420;2022-10-16T09:02:03;1.97;;;1.10;;
15708;SDS011;7954;51.914;8.420;2022-10-16T09:04:57;1.73;;;1.00;;
15708;SDS011;7954;51.914;8.420;2022-10-16T09:07:41;1.77;;;1.30;;
15708;SDS011;7954;51.914;8.420;2022-10-16T09:10:18;1.50;;;1.03;;
15708;SDS011;7954;51.914;8.420;2022-10-16T09:12:56;1.10;;;0.93;;
15708;SDS011;7954;51.914;8.420;2022-10-16T09:15:35;1.47;;;1.10;;
15708;SDS011;7954;51.914;8.420;2022-10-16T09:18:12;2.00;;;1.20;;
15708;SDS011;7954;51.914;8.420;2022-10-16T09:20:49;1.30;;;1.00;;
15708;SDS011;7954;51.914;8.420;2022-10-16T09:23:25;1.10;;;1.00;;
15708;SDS011;7954;51.914;8.420;2022-10-16T09:25:54;2.67;;;1.20;;
15708;SDS011;7954;51.914;8.420;2022-10-16T09:28:23;2.20;;;1.00;;
15708;SDS011;7954;51.914;8.420;2022-10-16T09:30:52;1.90;;;1.10;;
15708;SDS011;7954;51.914;8.420;2022-10-16T09:33:22;1.17;;;1.00;;
15708;SDS011;7954;51.914;8.420;2022-10-16T09:35:55;1.20;;;1.00;;
15708;SDS011;7954;51.914;8.420;2022-10-16T09:38:28;1.27;;;0.97;;
15708;SDS011;7954;51.914;8.420;2022-10-16T09:40:58;3.00;;;1.10;;
15708;SDS011;7954;51.914;8.420;2022-10-16T09:43:31;1.17;;;0.97;;
15708;SDS011;7954;51.914;8.420;2022-10-16T09:46:03;1.20;;;1.10;;
15708;SDS011;7954;51.914;8.420;2022-10-16T09:48:35;1.40;;;1.00;;
15708;SDS011;7954;51.914;8.420;2022-10-16T09:51:05;1.80;;;0.93;;
15708;SDS011;7954;51.914;8.420;2022-10-16T09:53:46;2.77;;;1.40;;
15708;SDS011;7954;51.914;8.420;2022-10-16T09:56:21;0.90;;;0.90;;
15708;SDS011;7954;51.914;8.420;2022-10-16T09:58:50;3.97;;;1.20;;
15708;SDS011;7954;51.914;8.420;2022-10-16T10:01:19;2.33;;;1.10;;
15708;SDS011;7954;51.914;8.420;2022-10-16T10:03:49;1.57;;;1.00;;
15708;SDS011;7954;51.914;8.420;2022-10-16T10:06:21;1.20;;;0.90;;
15708;SDS011;7954;51.914;8.420;2022-10-16T10:11:51;1.87;;;0.90;;
15708;SDS011;7954;51.914;8.420;2022-10-16T10:14:22;2.67;;;1.33;;
15708;SDS011;7954;51.914;8.420;2022-10-16T10:17:01;1.20;;;0.80;;
15708;SDS011;7954;51.914;8.420;2022-10-16T10:19:41;1.93;;;0.90;;
15708;SDS011;7954;51.914;8.420;2022-10-16T10:22:16;1.10;;;0.93;;
15708;SDS011;7954;51.914;8.420;2022-10-16T10:24:55;3.13;;;1.27;;
15708;SDS011;7954;51.914;8.420;2022-10-16T10:27:26;1.87;;;0.90;;
15708;SDS011;7954;51.914;8.420;2022-10-16T10:30:03;2.53;;;1.43;;
15708;SDS011;7954;51.914;8.420;2022-10-16T10:32:40;1.70;;;1.23;;
15708;SDS011;7954;51.914;8.420;2022-10-16T10:35:18;1.63;;;1.10;;
15708;SDS011;7954;51.914;8.420;2022-10-16T10:37:59;2.03;;;1.20;;
15708;SDS011;7954;51.914;8.420;2022-10-16T10:40:38;1.70;;;1.30;;
15708;SDS011;7954;51.914;8.420;2022-10-16T10:43:15;2.40;;;1.30;;
15708;SDS011;7954;51.914;8.420;2022-10-16T10:45:52;1.70;;;0.93;;
15708;SDS011;7954;51.914;8.420;2022-10-16T10:48:26;2.30;;;1.17;;
15708;SDS011;7954;51.914;8.420;2022-10-16T10:51:10;2.60;;;0.80;;
15708;SDS011;7954;51.914;8.420;2022-10-16T10:53:41;1.37;;;1.10;;
15708;SDS011;7954;51.914;8.420;2022-10-16T10:56:19;3.10;;;1.10;;
15708;SDS011;7954;51.914;8.420;2022-10-16T10:59:02;2.30;;;1.20;;
15708;SDS011;7954;51.914;8.420;2022-10-16T11:01:39;3.43;;;1.20;;
15708;SDS011;7954;51.914;8.420;2022-10-16T11:04:22;1.97;;;1.00;;
15708;SDS011;7954;51.914;8.420;2022-10-16T11:07:02;1.50;;;1.00;;
15708;SDS011;7954;51.914;8.420;2022-10-16T11:09:33;1.50;;;1.07;;
15708;SDS011;7954;51.914;8.420;2022-10-16T11:12:08;1.77;;;1.00;;
15708;SDS011;7954;51.914;8.420;2022-10-16T11:14:42;2.50;;;1.10;;
15708;SDS011;7954;51.914;8.420;2022-10-16T11:17:17;2.70;;;1.00;;
15708;SDS011;7954;51.914;8.420;2022-10-16T11:19:48;1.67;;;0.83;;
15708;SDS011;7954;51.914;8.420;2022-10-16T11:22:22;1.10;;;0.80;;
15708;SDS011;7954;51.914;8.420;2022-10-16T11:24:58;0.93;;;0.83;;
15708;SDS011;7954;51.914;8.420;2022-10-16T11:27:34;1.20;;;1.00;;
15708;SDS011;7954;51.914;8.420;2022-10-16T11:30:11;1.17;;;0.90;;
15708;SDS011;7954;51.914;8.420;2022-10-16T11:32:49;1.40;;;0.80;;
15708;SDS011;7954;51.914;8.420;2022-10-16T11:35:35;1.23;;;1.00;;
15708;SDS011;7954;51.914;8.420;2022-10-16T11:38:11;1.27;;;1.07;;
15708;SDS011;7954;51.914;8.420;2022-10-16T11:40:43;1.17;;;0.90;;
15708;SDS011;7954;51.914;8.420;2022-10-16T11:43:17;0.80;;;0.80;;
15708;SDS011;7954;51.914;8.420;2022-10-16T11:45:54;1.70;;;1.10;;
15708;SDS011;7954;51.914;8.420;2022-10-16T11:48:26;1.40;;;0.90;;
15708;SDS011;7954;51.914;8.420;2022-10-16T11:51:00;0.80;;;0.80;;
15708;SDS011;7954;51.914;8.420;2022-10-16T11:53:39;0.90;;;0.90;;
15708;SDS011;7954;51.914;8.420;2022-10-16T11:56:13;1.23;;;0.90;;
15708;SDS011;7954;51.914;8.420;2022-10-16T11:58:49;1.13;;;1.00;;
15708;SDS011;7954;51.914;8.420;2022-10-16T12:01:22;0.90;;;0.90;;
15708;SDS011;7954;51.914;8.420;2022-10-16T12:03:59;1.30;;;1.00;;
15708;SDS011;7954;51.914;8.420;2022-10-16T12:06:35;3.33;;;1.10;;
15708;SDS011;7954;51.914;8.420;2022-10-16T12:09:09;1.60;;;1.17;;
15708;SDS011;7954;51.914;8.420;2022-10-16T12:11:42;1.53;;;0.90;;
15708;SDS011;7954;51.914;8.420;2022-10-16T12:17:24;1.80;;;1.40;;
15708;SDS011;7954;51.914;8.420;2022-10-16T12:20:00;2.13;;;1.10;;
15708;SDS011;7954;51.914;8.420;2022-10-16T12:22:47;1.20;;;1.10;;
15708;SDS011;7954;51.914;8.420;2022-10-16T12:25:20;1.17;;;1.00;;
15708;SDS011;7954;51.914;8.420;2022-10-16T12:27:55;0.80;;;0.80;;
15708;SDS011;7954;51.914;8.420;2022-10-16T12:30:27;1.60;;;1.10;;
15708;SDS011;7954;51.914;8.420;2022-10-16T12:33:01;2.10;;;1.13;;
15708;SDS011;7954;51.914;8.420;2022-10-16T12:35:32;1.23;;;1.13;;
15708;SDS011;7954;51.914;8.420;2022-10-16T12:38:06;1.87;;;1.30;;
15708;SDS011;7954;51.914;8.420;2022-10-16T12:40:36;1.33;;;1.20;;
15708;SDS011;7954;51.914;8.420;2022-10-16T12:43:12;1.30;;;1.00;;
15708;SDS011;7954;51.914;8.420;2022-10-16T12:46:00;1.20;;;1.10;;
15708;SDS011;7954;51.914;8.420;2022-10-16T12:48:30;1.50;;;1.00;;
15708;SDS011;7954;51.914;8.420;2022-10-16T12:51:22;1.40;;;1.00;;
15708;SDS011;7954;51.914;8.420;2022-10-16T12:53:58;1.00;;;0.90;;
15708;SDS011;7954;51.914;8.420;2022-10-16T12:56:28;1.30;;;1.10;;
15708;SDS011;7954;51.914;8.420;2022-10-16T12:59:11;1.10;;;1.00;;
15708;SDS011;7954;51.914;8.420;2022-10-16T13:01:55;1.10;;;1.10;;
15708;SDS011;7954;51.914;8.420;2022-10-16T13:04:41;2.17;;;1.20;;
15708;SDS011;7954;51.914;8.420;2022-10-16T13:07:22;1.40;;;1.10;;
15708;SDS011;7954;51.914;8.420;2022-10-16T13:10:07;1.47;;;0.93;;
15708;SDS011;7954;51.914;8.420;2022-10-16T13:12:51;2.43;;;1.30;;
15708;SDS011;7954;51.914;8.420;2022-10-16T13:15:33;2.63;;;1.33;;
15708;SDS011;7954;51.914;8.420;2022-10-16T13:18:12;3.37;;;1.47;;
15708;SDS011;7954;51.914;8.420;2022-10-16T13:20:50;1.80;;;1.27;;
15708;SDS011;7954;51.914;8.420;2022-10-16T13:23:29;1.47;;;1.00;;
15708;SDS011;7954;51.914;8.420;2022-10-16T13:26:06;5.00;;;1.30;;
15708;SDS011;7954;51.914;8.420;2022-10-16T13:28:43;1.63;;;1.13;;
15708;SDS011;7954;51.914;8.420;2022-10-16T13:31:14;1.37;;;0.93;;
15708;SDS011;7954;51.914;8.420;2022-10-16T13:33:47;2.37;;;1.20;;
15708;SDS011;7954;51.914;8.420;2022-10-16T13:36:21;1.67;;;1.40;;
15708;SDS011;7954;51.914;8.420;2022-10-16T13:38:59;2.47;;;1.43;;
15708;SDS011;7954;51.914;8.420;2022-10-16T13:41:32;1.30;;;1.10;;
15708;SDS011;7954;51.914;8.420;2022-10-16T13:44:00;1.73;;;1.00;;
15708;SDS011;7954;51.914;8.420;2022-10-16T13:46:29;2.20;;;1.30;;
15708;SDS011;7954;51.914;8.420;2022-10-16T13:49:03;1.10;;;1.00;;
15708;SDS011;7954;51.914;8.420;2022-10-16T13:51:32;1.60;;;1.20;;
15708;SDS011;7954;51.914;8.420;2022-10-16T13:54:00;1.33;;;0.93;;
15708;SDS011;7954;51.914;8.420;2022-10-16T13:56:29;2.63;;;1.10;;
15708;SDS011;7954;51.914;8.420;2022-10-16T13:58:59;1.73;;;1.30;;
15708;SDS011;7954;51.914;8.420;2022-10-16T14:01:28;1.77;;;1.00;;
15708;SDS011;7954;51.914;8.420;2022-10-16T14:06:34;1.10;;;0.97;;
15708;SDS011;7954;51.914;8.420;2022-10-16T14:09:05;1.33;;;1.10;;
15708;SDS011;7954;51.914;8.420;2022-10-16T14:11:36;1.50;;;1.10;;
15708;SDS011;7954;51.914;8.420;2022-10-16T14:14:12;1.00;;;0.90;;
15708;SDS011;7954;51.914;8.420;2022-10-16T14:16:42;1.03;;;0.90;;
15708;SDS011;7954;51.914;8.420;2022-10-16T14:19:14;1.33;;;1.00;;
15708;SDS011;7954;51.914;8.420;2022-10-16T14:21:49;1.10;;;1.00;;
15708;SDS011;7954;51.914;8.420;2022-10-16T14:24:24;1.10;;;1.00;;
15708;SDS011;7954;51.914;8.420;2022-10-16T14:26:55;1.00;;;0.90;;
15708;SDS011;7954;51.914;8.420;2022-10-16T14:29:24;0.97;;;0.87;;
15708;SDS011;7954;51.914;8.420;2022-10-16T14:31:54;3.90;;;1.27;;
15708;SDS011;7954;51.914;8.420;2022-10-16T14:34:27;0.90;;;0.87;;
15708;SDS011;7954;51.914;8.420;2022-10-16T14:36:59;1.17;;;1.07;;
15708;SDS011;7954;51.914;8.420;2022-10-16T14:39:33;1.30;;;1.20;;
15708;SDS011;7954;51.914;8.420;2022-10-16T14:42:01;2.50;;;0.80;;
15708;SDS011;7954;51.914;8.420;2022-10-16T14:44:31;1.10;;;1.00;;
15708;SDS011;7954;51.914;8.420;2022-10-16T14:47:06;1.53;;;1.00;;
15708;SDS011;7954;51.914;8.420;2022-10-16T14:49:39;2.37;;;1.30;;
15708;SDS011;7954;51.914;8.420;2022-10-16T14:52:09;1.20;;;0.97;;
15708;SDS011;7954;51.914;8.420;2022-10-16T14:54:39;1.03;;;0.93;;
15708;SDS011;7954;51.914;8.420;2022-10-16T14:57:13;1.07;;;0.97;;
15708;SDS011;7954;51.914;8.420;2022-10-16T14:59:45;2.03;;;0.90;;
15708;SDS011;7954;51.914;8.420;2022-10-16T15:02:16;2.40;;;1.30;;
15708;SDS011;7954;51.914;8.420;2022-10-16T15:04:51;1.67;;;1.20;;
15708;SDS011;7954;51.914;8.420;2022-10-16T15:07:19;1.20;;;0.90;;
15708;SDS011;7954;51.914;8.420;2022-10-16T15:09:47;1.17;;;1.00;;
15708;SDS011;7954;51.914;8.420;2022-10-16T15:12:15;1.10;;;1.00;;
15708;SDS011;7954;51.914;8.420;2022-10-16T15:14:44;1.30;;;1.20;;
15708;SDS011;7954;51.914;8.420;2022-10-16T15:17:11;1.63;;;1.10;;
15708;SDS011;7954;51.914;8.420;2022-10-16T15:19:43;1.10;;;1.00;;
15708;SDS011;7954;51.914;8.420;2022-10-16T15:22:14;1.20;;;0.90;;
15708;SDS011;7954;51.914;8.420;2022-10-16T15:24:44;2.00;;;1.20;;
15708;SDS011;7954;51.914;8.420;2022-10-16T15:27:12;1.20;;;1.10;;
15708;SDS011;7954;51.914;8.420;2022-10-16T15:29:41;1.87;;;1.10;;
15708;SDS011;7954;51.914;8.420;2022-10-16T15:32:09;1.87;;;0.80;;
15708;SDS011;7954;51.914;8.420;2022-10-16T15:34:38;1.70;;;1.27;;
15708;SDS011;7954;51.914;8.420;2022-10-16T15:37:08;1.77;;;1.53;;